createdAt,value
2022-10-15T00:01:17.621Z,12.33
2022-10-15T00:06:18.283Z,12.24
2022-10-15T00:11:17.805Z,12.24
2022-10-15T00:16:18.124Z,12.20
2022-10-15T00:21:16.561Z,12.16
2022-10-15T00:26:21.874Z,12.12
2022-10-15T00:31:20.839Z,12.13
2022-10-15T00:36:20.393Z,12.10
2022-10-15T00:41:28.241Z,12.20
2022-10-15T00:46:35.550Z,12.29
2022-10-15T00:51:38.284Z,12.33
2022-10-15T00:56:37.730Z,12.34
2022-10-15T01:01:35.166Z,12.32
2022-10-15T01:06:31.891Z,12.20
2022-10-15T01:11:37.502Z,12.25
2022-10-15T01:16:52.880Z,12.27
2022-10-15T01:22:03.377Z,12.26
2022-10-15T01:27:17.762Z,12.14
2022-10-15T01:32:26.842Z,12.11
2022-10-15T01:37:40.537Z,12.10
2022-10-15T01:42:46.398Z,12.07
2022-10-15T01:47:49.559Z,12.11
2022-10-15T01:52:46.284Z,12.20
2022-10-15T01:57:45.067Z,12.25
2022-10-15T02:02:42.110Z,12.27
2022-10-15T02:07:52.995Z,12.29
2022-10-15T02:13:16.654Z,12.26
2022-10-15T02:18:21.202Z,12.26
2022-10-15T02:23:25.683Z,12.28
2022-10-15T02:28:25.760Z,12.25
2022-10-15T02:33:24.262Z,12.24
2022-10-15T02:38:24.518Z,12.33
2022-10-15T02:43:21.894Z,12.35
2022-10-15T02:48:18.416Z,12.36
2022-10-15T02:53:14.830Z,12.35
2022-10-15T02:58:11.298Z,12.29
2022-10-15T03:03:07.675Z,12.34
2022-10-15T03:08:04.545Z,12.33
2022-10-15T03:13:05.796Z,12.27
2022-10-15T03:18:02.171Z,12.21
2022-10-15T03:22:58.609Z,12.23
2022-10-15T03:27:54.949Z,12.36
2022-10-15T03:32:51.308Z,12.29
2022-10-15T03:37:48.029Z,12.29
2022-10-15T03:42:44.393Z,12.26
2022-10-15T03:47:40.763Z,12.24
2022-10-15T03:52:38.054Z,12.17
2022-10-15T03:57:34.428Z,11.95
2022-10-15T04:02:31.691Z,11.93
2022-10-15T04:07:28.093Z,11.99
2022-10-15T04:12:25.171Z,11.97
2022-10-15T04:17:21.916Z,12.08
2022-10-15T04:22:18.573Z,12.08
2022-10-15T04:32:16.973Z,12.03
2022-10-15T04:37:13.780Z,12.02
2022-10-15T04:42:10.150Z,11.95
2022-10-15T04:47:06.528Z,11.94
2022-10-15T04:52:02.905Z,11.94
2022-10-15T04:56:59.333Z,11.88
2022-10-15T05:01:55.833Z,11.88
2022-10-15T05:06:52.334Z,11.91
2022-10-15T05:11:48.819Z,11.78
2022-10-15T05:16:45.168Z,11.80
2022-10-15T05:21:41.573Z,11.75
2022-10-15T05:26:38.367Z,11.79
2022-10-15T05:31:34.832Z,11.83
2022-10-15T05:36:31.238Z,11.78
2022-10-15T05:41:29.000Z,11.80
2022-10-15T05:46:26.002Z,11.81
2022-10-15T05:51:25.225Z,11.85
2022-10-15T05:56:22.166Z,11.92
2022-10-15T06:01:19.827Z,11.90
2022-10-15T06:06:24.445Z,11.93
2022-10-15T06:11:21.711Z,11.85
2022-10-15T06:16:22.643Z,11.90
2022-10-15T06:21:20.951Z,11.96
2022-10-15T06:26:17.485Z,11.91
2022-10-15T06:31:13.939Z,11.98
2022-10-15T06:36:11.231Z,12.01
2022-10-15T06:41:07.841Z,12.00
2022-10-15T06:46:06.308Z,12.00
2022-10-15T06:51:03.666Z,12.10
2022-10-15T06:56:02.311Z,12.09
2022-10-15T07:01:03.125Z,12.23
2022-10-15T07:06:05.234Z,12.33
2022-10-15T07:11:06.901Z,12.44
2022-10-15T07:16:09.143Z,12.53
2022-10-15T07:21:07.975Z,12.89
2022-10-15T07:26:04.721Z,12.91
2022-10-15T07:31:06.423Z,12.99
2022-10-15T07:36:08.547Z,13.11
2022-10-15T07:41:05.273Z,13.18
2022-10-15T07:46:02.581Z,13.37
2022-10-15T07:51:01.332Z,13.55
2022-10-15T07:56:02.355Z,13.73
2022-10-15T08:01:02.541Z,13.83
2022-10-15T08:06:04.012Z,13.74
2022-10-15T08:11:05.801Z,13.69
2022-10-15T08:16:02.265Z,13.70
2022-10-15T08:21:00.541Z,13.78
2022-10-15T08:26:00.898Z,13.86
2022-10-15T08:31:04.579Z,14.01
2022-10-15T08:36:05.290Z,14.20
2022-10-15T08:41:03.343Z,14.38
2022-10-15T08:46:01.760Z,14.81
2022-10-15T08:51:11.379Z,14.97
2022-10-15T08:56:19.624Z,15.18
2022-10-15T09:01:24.807Z,15.25
2022-10-15T09:06:28.835Z,15.48
2022-10-15T09:12:09.035Z,15.84
2022-10-15T09:17:14.597Z,15.91
2022-10-15T09:22:16.984Z,15.86
2022-10-15T09:27:33.430Z,15.85
2022-10-15T09:32:54.524Z,16.06
2022-10-15T09:38:17.903Z,15.79
2022-10-15T09:43:19.961Z,16.24
2022-10-15T09:48:19.337Z,16.73
2022-10-15T09:53:15.801Z,16.44
2022-10-15T09:58:18.351Z,15.95
2022-10-15T10:03:15.596Z,15.83
2022-10-15T10:08:27.632Z,15.78
2022-10-15T10:13:28.045Z,15.85
2022-10-15T10:18:25.692Z,15.74
2022-10-15T10:23:24.485Z,16.25
2022-10-15T10:28:29.952Z,16.49
2022-10-15T10:33:45.980Z,16.23
2022-10-15T10:38:42.462Z,16.48
2022-10-15T10:43:41.233Z,16.72
2022-10-15T10:48:46.827Z,17.01
2022-10-15T10:53:49.307Z,17.25
2022-10-15T10:58:45.725Z,17.36
2022-10-15T11:03:45.267Z,17.59
2022-10-15T11:09:06.166Z,17.45
2022-10-15T11:14:46.897Z,17.54
2022-10-15T11:20:20.721Z,17.56
2022-10-15T11:25:29.308Z,17.47
2022-10-15T11:31:03.144Z,17.15
2022-10-15T11:36:02.272Z,17.24
2022-10-15T11:41:15.326Z,17.79
2022-10-15T11:46:34.862Z,18.24
2022-10-15T11:51:40.663Z,17.87
2022-10-15T11:56:41.663Z,17.90
2022-10-15T12:01:48.482Z,17.79
2022-10-15T12:06:49.887Z,17.72
2022-10-15T12:11:56.943Z,17.52
2022-10-15T12:22:11.604Z,17.41
2022-10-15T12:27:20.216Z,17.35
2022-10-15T12:32:28.795Z,17.83
2022-10-15T12:37:28.565Z,18.09
2022-10-15T12:42:37.619Z,18.04
2022-10-15T12:47:55.364Z,17.89
2022-10-15T12:52:56.328Z,17.75
2022-10-15T12:58:00.051Z,17.44
2022-10-15T13:03:01.151Z,17.08
2022-10-15T13:08:00.702Z,17.06
2022-10-15T13:13:06.098Z,16.78
2022-10-15T13:18:12.793Z,16.45
2022-10-15T13:23:30.125Z,16.43
2022-10-15T13:28:34.514Z,16.63
2022-10-15T13:33:31.404Z,16.78
2022-10-15T13:38:28.870Z,16.89
2022-10-15T13:43:27.762Z,16.93
2022-10-15T13:48:27.071Z,17.02
2022-10-15T13:53:50.446Z,17.11
2022-10-15T13:58:47.567Z,17.20
2022-10-15T14:03:49.920Z,17.03
2022-10-15T14:08:48.376Z,16.92
2022-10-15T14:14:02.823Z,16.85
2022-10-15T14:19:10.120Z,16.98
2022-10-15T14:24:12.942Z,16.88
2022-10-15T14:29:38.029Z,16.77
2022-10-15T14:34:34.602Z,16.55
2022-10-15T14:39:36.313Z,16.52
2022-10-15T14:44:47.575Z,16.62
2022-10-15T14:49:43.994Z,16.63
2022-10-15T14:54:51.070Z,16.70
2022-10-15T14:59:47.621Z,16.73
2022-10-15T15:04:51.114Z,16.72
2022-10-15T15:09:48.783Z,16.71
2022-10-15T15:14:45.189Z,16.72
2022-10-15T15:19:43.949Z,16.81
2022-10-15T15:24:41.199Z,16.92
2022-10-15T15:29:37.563Z,16.94
2022-10-15T15:34:33.939Z,16.91
2022-10-15T15:39:30.310Z,16.96
2022-10-15T15:44:26.687Z,16.95
2022-10-15T15:49:23.572Z,16.96
2022-10-15T15:54:19.964Z,16.93
2022-10-15T15:59:19.252Z,16.88
2022-10-15T16:04:15.857Z,16.92
2022-10-15T16:09:12.296Z,16.87
2022-10-15T16:14:09.499Z,16.88
2022-10-15T16:19:06.081Z,16.78
2022-10-15T16:24:02.541Z,16.73
2022-10-15T16:28:58.997Z,16.72
2022-10-15T16:33:55.561Z,16.68
2022-10-15T16:38:51.922Z,16.54
2022-10-15T16:43:49.194Z,16.48
2022-10-15T16:48:51.315Z,16.21
2022-10-15T16:53:48.297Z,15.98
2022-10-15T16:58:44.826Z,15.87
2022-10-15T17:03:42.318Z,15.83
2022-10-15T17:08:43.047Z,15.67
2022-10-15T17:13:39.941Z,15.49
2022-10-15T17:18:36.378Z,15.43
2022-10-15T17:23:33.458Z,15.44
2022-10-15T17:28:29.807Z,15.51
2022-10-15T17:33:26.271Z,15.50
2022-10-15T17:38:22.814Z,15.49
2022-10-15T17:43:19.170Z,15.43
2022-10-15T17:48:15.733Z,15.46
2022-10-15T17:53:13.290Z,15.42
2022-10-15T17:58:09.906Z,15.38
2022-10-15T18:03:06.341Z,15.31
2022-10-15T18:08:03.950Z,15.26
2022-10-15T18:13:00.320Z,15.29
2022-10-15T18:17:57.143Z,15.31
2022-10-15T18:22:53.846Z,15.28
2022-10-15T18:27:50.307Z,15.25
2022-10-15T18:32:46.707Z,15.20
2022-10-15T18:37:43.180Z,15.17
2022-10-15T18:42:39.572Z,15.11
2022-10-15T18:47:35.995Z,15.04
2022-10-15T18:52:39.922Z,15.01
2022-10-15T18:57:36.948Z,14.94
2022-10-15T19:02:33.400Z,14.93
2022-10-15T19:07:31.684Z,14.79
2022-10-15T19:12:28.552Z,14.74
2022-10-15T19:17:25.027Z,14.75
2022-10-15T19:22:21.491Z,14.66
2022-10-15T19:27:17.849Z,14.57
2022-10-15T19:32:14.233Z,14.49
2022-10-15T19:37:10.655Z,14.39
2022-10-15T19:42:07.026Z,14.25
2022-10-15T19:47:03.399Z,14.18
2022-10-15T19:52:01.185Z,14.05
2022-10-15T19:56:57.828Z,13.93
2022-10-15T20:01:54.176Z,13.84
2022-10-15T20:06:52.730Z,13.82
2022-10-15T20:11:49.187Z,13.79
2022-10-15T20:16:45.559Z,13.68
2022-10-15T20:21:42.025Z,13.65
2022-10-15T20:26:38.496Z,13.54
2022-10-15T20:31:35.804Z,13.52
2022-10-15T20:36:32.220Z,13.47
2022-10-15T20:41:29.002Z,13.29
2022-10-15T20:46:39.806Z,13.05
2022-10-15T20:51:40.103Z,12.82
2022-10-15T20:56:36.604Z,12.61
2022-10-15T21:01:34.312Z,12.49
2022-10-15T21:06:31.120Z,12.47
2022-10-15T21:11:27.670Z,12.48
2022-10-15T21:16:27.413Z,12.40
2022-10-15T21:21:25.038Z,12.26
2022-10-15T21:26:21.777Z,12.19
2022-10-15T21:31:18.142Z,12.06
2022-10-15T21:36:21.974Z,12.05
2022-10-15T21:41:18.771Z,11.97
2022-10-15T21:46:15.316Z,11.85
2022-10-15T21:51:13.998Z,11.87
2022-10-15T21:56:10.454Z,11.82
2022-10-15T22:01:23.606Z,11.68
2022-10-15T22:06:21.089Z,11.69
2022-10-15T22:11:23.632Z,11.78
2022-10-15T22:16:23.393Z,11.79
2022-10-15T22:21:23.225Z,11.84
2022-10-15T22:26:21.916Z,11.89
2022-10-15T22:31:18.303Z,11.89
2022-10-15T22:36:20.026Z,11.99
2022-10-15T22:41:16.380Z,12.05
2022-10-15T22:46:13.050Z,12.11
2022-10-15T22:51:12.913Z,12.11
2022-10-15T22:56:14.708Z,12.11
2022-10-15T23:01:15.772Z,12.11
2022-10-15T23:06:13.210Z,12.12
2022-10-15T23:11:13.861Z,12.13
2022-10-15T23:16:17.764Z,12.08
2022-10-15T23:21:20.555Z,12.06
2022-10-15T23:26:16.961Z,12.08
2022-10-15T23:31:21.197Z,12.09
2022-10-15T23:36:18.190Z,12.00
2022-10-15T23:41:15.388Z,12.00
2022-10-15T23:46:11.910Z,11.98
2022-10-15T23:51:23.402Z,11.94
2022-10-15T23:56:21.118Z,12.02
